Lake Almanor, California
Current Conditions -  °F | °C
As of 5:52 AM on Sunday 23 Nov 2014 (Local Time) from KBLU Reporting Station
Clear Clear  
Wind Chill: 30°   Ceiling: Unl
Heat Index: 38°   Visibility: 10mi
Dew Point: 13°   Wind: 12mph
Humidity: 36%   Direction: 50°NE
Pressure: 30.25"   Gusts: 25mph
Location:  39.56°N, 120.93°W
Report Text: KBLU 231352Z AUTO 05010G22KT 10SM CLR 03/M11 A3025 RMK AO2 SLP238 T00331106
Loading
Personal Weather Stations






























Interactive Weather Map New forecast layout! Learn more

10-Day Weather Forecast

Advertisements
Track Severe Weather on mobile